Time;durP1;ratioP1;P1;durP2;ratioP2;P2;SDS_P1;SDS_P2;PMS_P1;PMS_P2;Temp;Humidity;BMP_temperature;BMP_pressure;BME280_temperature;BME280_humidity;BME280_pressure;Samples;Min_cycle;Max_cycle;Signal;HPM_P1;HPM_P2
2022/09/14 00:01:13;;;;;;;5.97;3.10;;;13.90;99.90;;;;;;5076031;28;20055;-60
2022/09/14 00:03:39;;;;;;;6.13;2.90;;;13.90;99.90;;;;;;5077080;28;20055;-60
2022/09/14 00:06:06;;;;;;;6.93;2.58;;;14.00;99.90;;;;;;5058784;28;20044;-60
2022/09/14 00:08:33;;;;;;;7.78;2.50;;;14.00;99.90;;;;;;5077002;28;20484;-60
2022/09/14 00:11:07;;;;;;;6.97;3.40;;;14.00;99.90;;;;;;5076422;28;20032;-61
2022/09/14 00:13:34;;;;;;;5.40;2.70;;;14.10;99.90;;;;;;5075944;28;20429;-60
2022/09/14 00:16:05;;;;;;;7.90;3.05;;;14.10;99.90;;;;;;5076305;28;20035;-61
2022/09/14 00:18:33;;;;;;;8.55;3.60;;;14.10;99.90;;;;;;5076918;28;20040;-60
2022/09/14 00:21:04;;;;;;;8.68;4.03;;;14.20;99.90;;;;;;5093396;28;20036;-61
2022/09/14 00:23:29;;;;;;;9.15;3.75;;;14.20;99.90;;;;;;5076844;28;20070;-60
2022/09/14 00:26:00;;;;;;;6.03;2.83;;;14.20;99.90;;;;;;5094150;28;20044;-60
2022/09/14 00:28:26;;;;;;;7.55;2.80;;;14.30;99.90;;;;;;5059332;28;20079;-61
2022/09/14 00:30:52;;;;;;;7.60;2.80;;;14.30;99.90;;;;;;5076023;28;20083;-61
2022/09/14 00:33:18;;;;;;;10.30;2.80;;;14.30;99.90;;;;;;5076823;28;20115;-60
2022/09/14 00:35:44;;;;;;;10.65;3.97;;;14.30;99.90;;;;;;5093937;28;20036;-61
2022/09/14 00:38:09;;;;;;;5.82;2.65;;;14.30;99.90;;;;;;5076307;28;20032;-60
2022/09/14 00:40:36;;;;;;;5.68;2.42;;;14.40;99.90;;;;;;5076324;28;20042;-61
2022/09/14 00:43:02;;;;;;;5.47;2.50;;;14.40;99.90;;;;;;5075036;28;20059;-61
2022/09/14 00:45:28;;;;;;;8.50;2.50;;;14.30;99.90;;;;;;5076415;28;20412;-60
2022/09/14 00:47:55;;;;;;;7.63;2.75;;;14.30;99.90;;;;;;5058255;28;20040;-60
2022/09/14 00:50:21;;;;;;;5.93;2.70;;;14.30;99.90;;;;;;5093502;28;20149;-61
2022/09/14 00:52:49;;;;;;;7.28;2.42;;;14.30;99.90;;;;;;5093768;28;20043;-61
2022/09/14 00:55:19;;;;;;;6.97;2.85;;;14.30;99.90;;;;;;5075482;28;20098;-60
2022/09/14 00:57:48;;;;;;;10.00;3.45;;;14.20;99.90;;;;;;5093673;28;20039;-61
2022/09/14 01:00:18;;;;;;;7.50;3.28;;;14.30;99.90;;;;;;5076020;28;20048;-60
2022/09/14 01:02:44;;;;;;;10.98;2.95;;;14.30;99.90;;;;;;5093579;28;20055;-61
2022/09/14 01:05:10;;;;;;;7.00;2.97;;;14.30;99.90;;;;;;5075779;28;20048;-61
2022/09/14 01:07:53;;;;;;;6.18;2.88;;;14.30;99.90;;;;;;5076043;28;20048;-61
2022/09/14 01:10:53;;;;;;;4.47;2.33;;;14.40;99.90;;;;;;5092990;28;20082;-60
2022/09/14 01:13:37;;;;;;;6.60;2.63;;;14.40;99.90;;;;;;5075728;28;20051;-60
2022/09/14 01:16:28;;;;;;;9.45;3.08;;;14.40;99.90;;;;;;5093329;28;20047;-61
2022/09/14 01:19:00;;;;;;;6.65;3.03;;;14.40;99.90;;;;;;5093039;28;20040;-60
2022/09/14 01:21:47;;;;;;;6.90;2.42;;;14.40;99.90;;;;;;5093690;28;20056;-60
2022/09/14 01:24:36;;;;;;;6.53;2.30;;;14.50;99.90;;;;;;5092912;28;20093;-60
2022/09/14 01:27:26;;;;;;;5.78;2.30;;;14.50;99.90;;;;;;5058657;28;20062;-60
2022/09/14 01:30:06;;;;;;;7.78;2.25;;;14.60;99.90;;;;;;5093114;28;20048;-60
2022/09/14 01:32:49;;;;;;;6.22;1.80;;;14.60;99.90;;;;;;5092734;28;20043;-60
2022/09/14 01:35:21;;;;;;;12.45;2.40;;;14.70;99.90;;;;;;5075515;28;20044;-60
2022/09/14 01:37:56;;;;;;;6.75;1.77;;;14.70;99.90;;;;;;5073768;28;20048;-60
2022/09/14 01:40:28;;;;;;;4.57;1.60;;;14.70;99.90;;;;;;5093295;28;20484;-60
2022/09/14 01:43:02;;;;;;;7.60;1.60;;;14.80;99.90;;;;;;5074641;28;20048;-60
2022/09/14 01:45:30;;;;;;;4.45;1.20;;;14.80;99.90;;;;;;5092533;28;20094;-60
2022/09/14 01:48:00;;;;;;;5.28;1.40;;;14.90;99.90;;;;;;5092638;28;20479;-61
2022/09/14 01:50:32;;;;;;;12.48;3.10;;;14.90;99.90;;;;;;5075307;28;20403;-60
2022/09/14 01:53:25;;;;;;;4.55;1.52;;;14.90;99.90;;;;;;5091765;28;20036;-60
2022/09/14 01:55:54;;;;;;;4.22;1.25;;;15.00;99.90;;;;;;5057896;28;20036;-60
2022/09/14 01:58:34;;;;;;;5.47;1.63;;;15.00;99.90;;;;;;5074565;28;20074;-60
2022/09/14 02:01:03;;;;;;;5.50;1.67;;;15.00;99.90;;;;;;5091892;28;20044;-60
2022/09/14 02:03:35;;;;;;;5.82;1.33;;;15.00;99.90;;;;;;5075015;28;20122;-61
2022/09/14 02:06:34;;;;;;;4.03;1.55;;;15.00;99.90;;;;;;5091387;28;20071;-60
2022/09/14 02:09:00;;;;;;;7.55;1.23;;;15.00;99.90;;;;;;5063958;28;20519;-60
2022/09/14 02:11:26;;;;;;;6.00;1.02;;;15.00;99.90;;;;;;5074581;28;20051;-60
2022/09/14 02:13:52;;;;;;;7.18;1.50;;;15.00;99.90;;;;;;5073218;28;20040;-60
2022/09/14 02:16:20;;;;;;;4.18;0.95;;;15.00;99.90;;;;;;5093061;28;20044;-60
2022/09/14 02:18:46;;;;;;;5.20;1.17;;;15.00;99.90;;;;;;5092236;28;20047;-60
2022/09/14 02:21:16;;;;;;;2.58;0.90;;;15.00;99.90;;;;;;5073499;28;20056;-61
2022/09/14 02:23:42;;;;;;;4.05;1.10;;;15.00;99.90;;;;;;5074699;28;20480;-61
2022/09/14 02:26:08;;;;;;;5.40;1.42;;;15.00;99.90;;;;;;5074062;28;20047;-60
2022/09/14 02:28:34;;;;;;;3.85;0.88;;;15.00;99.90;;;;;;5091882;28;20040;-60
2022/09/14 02:31:15;;;;;;;4.20;1.15;;;15.00;99.90;;;;;;5091809;28;20043;-60
2022/09/14 02:34:24;;;;;;;3.15;0.90;;;15.00;99.90;;;;;;5091701;28;20036;-60
2022/09/14 02:37:12;;;;;;;3.28;1.02;;;14.90;99.90;;;;;;5009767;28;20149;-60
2022/09/14 02:40:05;;;;;;;3.45;1.30;;;14.90;99.90;;;;;;5074499;28;20039;-60
2022/09/14 02:42:46;;;;;;;6.10;1.13;;;14.90;99.90;;;;;;5091848;28;20040;-60
2022/09/14 02:45:34;;;;;;;4.35;1.20;;;14.80;99.90;;;;;;5074410;28;20040;-60
2022/09/14 02:48:21;;;;;;;3.40;1.05;;;14.80;99.90;;;;;;5090990;28;20058;-60
2022/09/14 02:50:53;;;;;;;4.18;1.45;;;14.80;99.90;;;;;;5073678;28;20488;-60
2022/09/14 02:53:23;;;;;;;3.88;0.80;;;14.80;99.90;;;;;;5074198;28;20032;-60
2022/09/14 02:55:54;;;;;;;4.38;0.88;;;14.70;99.90;;;;;;5073029;28;20040;-60
2022/09/14 02:58:20;;;;;;;5.70;1.15;;;14.80;99.90;;;;;;5092346;28;20032;-60
2022/09/14 03:00:48;;;;;;;2.80;0.80;;;14.80;99.90;;;;;;5073675;28;20431;-61
2022/09/14 03:03:20;;;;;;;4.53;0.88;;;14.80;99.90;;;;;;5073522;28;20083;-60
2022/09/14 03:05:46;;;;;;;4.30;1.08;;;14.70;99.90;;;;;;5091828;28;20044;-60
2022/09/14 03:08:12;;;;;;;5.00;1.00;;;14.80;99.90;;;;;;5074352;28;20047;-60
2022/09/14 03:10:40;;;;;;;3.10;0.80;;;14.80;99.90;;;;;;5073846;28;20052;-60
2022/09/14 03:13:06;;;;;;;3.53;1.20;;;14.80;99.90;;;;;;5077633;28;20105;-60
2022/09/14 03:15:32;;;;;;;4.53;1.08;;;14.80;99.90;;;;;;5096025;28;20032;-61
2022/09/14 03:17:58;;;;;;;6.32;1.50;;;14.80;99.90;;;;;;5094746;28;20485;-60
2022/09/14 03:20:26;;;;;;;4.70;1.23;;;14.80;99.90;;;;;;5077983;28;20047;-61
2022/09/14 03:22:52;;;;;;;2.75;0.90;;;14.80;99.90;;;;;;5076408;28;20056;-60
2022/09/14 03:25:19;;;;;;;3.60;0.93;;;14.90;99.90;;;;;;5095904;28;20032;-60
2022/09/14 03:27:49;;;;;;;2.83;0.80;;;14.80;99.90;;;;;;5095438;28;20128;-60
2022/09/14 03:30:15;;;;;;;5.07;1.00;;;14.80;99.90;;;;;;5095320;28;20047;-60
2022/09/14 03:32:40;;;;;;;4.13;1.25;;;14.80;99.90;;;;;;5096005;28;20027;-60
2022/09/14 03:35:07;;;;;;;3.50;0.90;;;14.80;99.90;;;;;;5077035;28;20481;-60
2022/09/14 03:37:37;;;;;;;3.28;1.05;;;14.80;99.90;;;;;;5095141;28;20068;-60
2022/09/14 03:40:04;;;;;;;3.88;1.00;;;14.80;99.90;;;;;;5095267;28;20383;-60
2022/09/14 03:42:29;;;;;;;5.40;2.00;;;14.80;99.90;;;;;;5077417;28;20055;-60
2022/09/14 03:44:55;;;;;;;7.85;1.80;;;14.80;99.90;;;;;;5076185;28;20387;-60
2022/09/14 03:47:21;;;;;;;6.25;1.58;;;14.80;99.90;;;;;;5077421;28;20499;-60
2022/09/14 03:49:47;;;;;;;5.20;1.77;;;14.70;99.90;;;;;;5094724;28;20047;-60
2022/09/14 03:52:12;;;;;;;3.78;1.38;;;14.70;99.90;;;;;;5094799;28;20032;-60
2022/09/14 03:54:39;;;;;;;5.00;1.80;;;14.80;99.90;;;;;;5077496;28;20472;-60
2022/09/14 03:57:06;;;;;;;5.15;1.40;;;14.70;99.90;;;;;;5076577;28;20123;-60
2022/09/14 03:59:32;;;;;;;6.13;2.00;;;14.80;99.90;;;;;;5094649;28;20052;-60
2022/09/14 04:01:57;;;;;;;6.35;1.35;;;14.70;99.90;;;;;;5094904;28;20400;-60
2022/09/14 04:04:23;;;;;;;4.47;1.30;;;14.70;99.90;;;;;;5077216;28;20116;-60
2022/09/14 04:06:49;;;;;;;3.53;1.20;;;14.70;99.90;;;;;;5093754;28;20475;-61
2022/09/14 04:09:14;;;;;;;5.93;1.48;;;14.70;99.90;;;;;;5095166;28;20036;-60
2022/09/14 04:11:40;;;;;;;4.63;1.40;;;14.70;99.90;;;;;;5094793;28;20044;-60
2022/09/14 04:14:07;;;;;;;4.28;1.20;;;14.70;99.90;;;;;;5093679;28;20055;-60
2022/09/14 04:16:33;;;;;;;4.70;1.50;;;14.70;99.90;;;;;;5095087;28;20039;-60
2022/09/14 04:18:58;;;;;;;4.47;1.30;;;14.70;99.90;;;;;;5094390;28;20028;-60
2022/09/14 04:21:25;;;;;;;6.45;2.80;;;14.70;99.90;;;;;;5076226;28;20052;-60
2022/09/14 04:23:55;;;;;;;6.15;1.77;;;14.70;99.90;;;;;;5075330;28;20387;-60
2022/09/14 04:26:24;;;;;;;4.50;1.73;;;14.60;99.90;;;;;;5075903;28;20052;-60
2022/09/14 04:28:50;;;;;;;4.97;1.30;;;14.60;99.90;;;;;;5075966;28;20048;-60
2022/09/14 04:31:16;;;;;;;5.85;1.70;;;14.60;99.90;;;;;;5094460;28;20040;-60
2022/09/14 04:33:43;;;;;;;4.72;1.50;;;14.60;99.90;;;;;;5093976;28;20032;-60
2022/09/14 04:36:11;;;;;;;5.20;1.85;;;14.60;99.90;;;;;;5093978;28;20036;-60
2022/09/14 04:38:38;;;;;;;5.78;2.40;;;14.50;99.90;;;;;;5076390;28;20158;-60
2022/09/14 04:41:10;;;;;;;6.80;1.77;;;14.50;99.90;;;;;;5093021;28;20048;-60
2022/09/14 04:43:36;;;;;;;8.38;2.10;;;14.50;99.90;;;;;;5076400;28;20039;-60
2022/09/14 04:46:03;;;;;;;6.18;2.13;;;14.50;99.90;;;;;;5093833;28;20120;-60
2022/09/14 04:48:32;;;;;;;4.38;1.55;;;14.50;99.90;;;;;;5075522;28;20040;-60
2022/09/14 04:51:25;;;;;;;5.95;1.80;;;14.50;99.90;;;;;;5093685;28;20048;-60
2022/09/14 04:53:53;;;;;;;6.60;1.60;;;14.50;99.90;;;;;;5072585;28;20040;-60
2022/09/14 04:56:21;;;;;;;6.65;2.00;;;14.50;99.90;;;;;;5093425;28;20067;-60
2022/09/14 04:58:48;;;;;;;6.45;1.88;;;14.50;99.90;;;;;;5093757;28;20036;-60
2022/09/14 05:01:17;;;;;;;6.50;2.35;;;14.50;99.90;;;;;;5075137;28;20498;-60
2022/09/14 05:03:43;;;;;;;7.72;2.47;;;14.50;99.90;;;;;;5075899;28;20044;-60
2022/09/14 05:06:14;;;;;;;5.57;1.80;;;14.50;99.90;;;;;;5093621;28;20065;-60
2022/09/14 05:08:40;;;;;;;5.15;1.70;;;14.50;99.90;;;;;;5074938;28;20492;-60
2022/09/14 05:11:08;;;;;;;7.13;2.08;;;14.50;99.90;;;;;;5058514;28;20040;-60
2022/09/14 05:13:34;;;;;;;6.00;2.05;;;14.50;99.90;;;;;;5093676;28;20485;-60
2022/09/14 05:16:16;;;;;;;4.57;2.00;;;14.50;99.90;;;;;;5074565;28;20177;-60
2022/09/14 05:18:42;;;;;;;5.85;2.08;;;14.60;99.90;;;;;;5093750;28;20503;-60
2022/09/14 05:21:10;;;;;;;7.72;2.90;;;14.50;99.90;;;;;;5093048;28;20064;-60
2022/09/14 05:23:37;;;;;;;5.47;2.45;;;14.50;99.90;;;;;;5093090;28;20040;-60
2022/09/14 05:26:04;;;;;;;4.88;1.95;;;14.50;99.90;;;;;;5093124;28;20040;-60
2022/09/14 05:28:31;;;;;;;7.55;2.10;;;14.50;99.90;;;;;;5093603;28;20051;-60
2022/09/14 05:30:56;;;;;;;6.63;2.55;;;14.50;99.90;;;;;;5091896;28;20040;-60
2022/09/14 05:33:22;;;;;;;9.00;2.17;;;14.50;99.90;;;;;;5093551;28;20120;-60
2022/09/14 05:35:49;;;;;;;6.95;2.20;;;14.40;99.90;;;;;;5093016;28;20036;-60
2022/09/14 05:38:15;;;;;;;8.18;2.53;;;14.40;99.90;;;;;;5088253;28;20502;-60
2022/09/14 05:40:41;;;;;;;6.85;2.83;;;14.40;99.90;;;;;;5102031;28;20039;-59
2022/09/14 05:43:07;;;;;;;7.40;2.47;;;14.40;99.90;;;;;;5094855;28;20032;-59
2022/09/14 05:45:33;;;;;;;6.03;2.38;;;14.40;99.90;;;;;;5096922;28;20090;-60
2022/09/14 05:48:06;;;;;;;7.22;2.90;;;14.40;99.90;;;;;;5074851;28;20091;-61
2022/09/14 05:50:32;;;;;;;10.50;2.90;;;14.50;99.90;;;;;;5092491;28;20040;-60
2022/09/14 05:52:57;;;;;;;8.52;3.05;;;14.50;99.90;;;;;;5092622;28;20043;-61
2022/09/14 05:55:23;;;;;;;8.05;3.10;;;14.50;99.90;;;;;;5093124;28;20042;-60
2022/09/14 05:57:50;;;;;;;6.68;2.78;;;14.50;99.90;;;;;;5091956;28;20040;-60
2022/09/14 06:00:16;;;;;;;7.80;2.80;;;14.50;99.90;;;;;;5092639;28;20040;-60
2022/09/14 06:02:50;;;;;;;6.40;2.47;;;14.50;99.90;;;;;;5071226;28;20044;-59
2022/09/14 06:05:17;;;;;;;8.18;3.08;;;14.50;99.90;;;;;;5057236;28;20044;-63
2022/09/14 06:07:43;;;;;;;7.85;2.42;;;14.60;99.90;;;;;;5066439;28;20052;-64
2022/09/14 06:10:11;;;;;;;7.13;2.55;;;14.50;99.90;;;;;;5071694;28;20061;-64
2022/09/14 06:12:37;;;;;;;9.13;3.00;;;14.50;99.90;;;;;;5088121;28;20047;-63
2022/09/14 06:15:03;;;;;;;6.97;2.65;;;14.50;99.90;;;;;;5088088;28;20052;-63
2022/09/14 06:17:30;;;;;;;6.32;2.53;;;14.50;99.90;;;;;;5090123;28;20112;-64
2022/09/14 06:19:55;;;;;;;11.10;3.45;;;14.50;99.90;;;;;;5070499;28;20051;-64
2022/09/14 06:22:21;;;;;;;5.70;3.03;;;14.50;99.90;;;;;;5068446;28;20052;-64
2022/09/14 06:24:47;;;;;;;6.63;3.30;;;14.50;99.90;;;;;;5073288;28;20040;-64
2022/09/14 06:27:12;;;;;;;7.57;3.05;;;14.60;99.90;;;;;;5093012;28;20138;-64
2022/09/14 06:29:38;;;;;;;5.35;3.03;;;14.60;99.90;;;;;;5073493;28;20040;-63
2022/09/14 06:32:04;;;;;;;6.22;2.63;;;14.60;99.90;;;;;;5097018;28;20043;-64
2022/09/14 06:34:29;;;;;;;7.53;2.85;;;14.70;99.90;;;;;;5109387;28;20039;-64
2022/09/14 06:36:56;;;;;;;7.07;3.30;;;14.70;99.90;;;;;;5088761;28;20073;-64
2022/09/14 06:39:21;;;;;;;7.10;3.05;;;14.70;99.90;;;;;;5071874;28;20404;-63
2022/09/14 06:41:47;;;;;;;8.30;2.55;;;14.80;99.90;;;;;;5070458;28;20059;-63
2022/09/14 06:44:13;;;;;;;7.07;3.40;;;14.80;99.90;;;;;;5072078;28;20151;-63
2022/09/14 06:46:38;;;;;;;8.07;3.22;;;14.80;99.90;;;;;;5069856;28;20067;-64
2022/09/14 06:49:11;;;;;;;9.35;3.55;;;14.80;99.90;;;;;;5070426;28;20063;-64
2022/09/14 06:51:40;;;;;;;8.25;3.13;;;14.90;99.90;;;;;;5065074;28;20051;-63
2022/09/14 06:54:06;;;;;;;11.88;3.90;;;15.00;99.90;;;;;;5050446;28;20040;-63
2022/09/14 06:56:34;;;;;;;8.95;3.47;;;15.00;99.90;;;;;;5069867;28;20044;-63
2022/09/14 06:59:00;;;;;;;8.82;3.30;;;15.00;99.90;;;;;;5055110;28;20044;-63
2022/09/14 07:01:27;;;;;;;7.72;3.50;;;15.10;99.90;;;;;;5101771;28;20072;-64
2022/09/14 07:03:53;;;;;;;6.50;3.03;;;15.10;99.90;;;;;;5088582;28;20132;-64
2022/09/14 07:06:24;;;;;;;6.53;3.38;;;15.10;99.90;;;;;;5068070;28;20619;-64
2022/09/14 07:08:50;;;;;;;6.35;3.38;;;15.10;99.90;;;;;;5066900;28;20044;-64
2022/09/14 07:11:18;;;;;;;6.03;3.20;;;15.20;99.90;;;;;;5041937;28;20533;-64
2022/09/14 07:13:45;;;;;;;6.00;2.95;;;15.20;99.90;;;;;;5082037;28;20071;-64
2022/09/14 07:16:11;;;;;;;6.28;2.88;;;15.20;99.90;;;;;;5074922;28;20128;-64
2022/09/14 07:18:37;;;;;;;6.63;3.13;;;15.20;99.90;;;;;;5064414;28;20456;-63
2022/09/14 07:21:12;;;;;;;6.18;3.08;;;15.30;99.90;;;;;;5072652;28;20032;-64
2022/09/14 07:23:39;;;;;;;;;;;15.40;99.90;;;;;;5079600;28;20063;-64
2022/09/14 07:26:10;;;;;;;7.95;2.45;;;15.40;99.90;;;;;;5088236;28;19947;-64
2022/09/14 07:28:40;;;;;;;7.88;2.85;;;15.40;99.90;;;;;;5089591;28;20515;-64
2022/09/14 07:31:16;;;;;;;5.65;2.45;;;15.50;99.90;;;;;;5077928;28;20107;-64
2022/09/14 07:33:41;;;;;;;13.73;3.45;;;15.60;99.90;;;;;;5069531;28;20123;-64
2022/09/14 07:36:09;;;;;;;7.75;2.92;;;15.60;99.90;;;;;;5066985;28;20178;-64
2022/09/14 07:38:35;;;;;;;6.60;2.55;;;15.70;99.90;;;;;;5076606;28;20040;-64
2022/09/14 07:41:01;;;;;;;6.10;2.38;;;15.70;99.90;;;;;;5050921;28;20431;-64
2022/09/14 07:43:27;;;;;;;6.15;2.28;;;15.80;99.90;;;;;;5051070;28;20115;-64
2022/09/14 07:45:53;;;;;;;6.70;2.45;;;15.80;99.90;;;;;;5067290;28;20052;-64
2022/09/14 07:48:19;;;;;;;8.02;2.20;;;15.80;99.90;;;;;;5072300;28;20032;-64
2022/09/14 07:50:45;;;;;;;8.05;2.38;;;15.90;99.90;;;;;;5069315;28;20516;-63
2022/09/14 07:53:11;;;;;;;5.65;1.98;;;16.00;99.90;;;;;;5087180;28;20497;-62
2022/09/14 07:55:38;;;;;;;7.25;2.15;;;16.10;99.90;;;;;;5073261;28;20044;-64
2022/09/14 07:58:04;;;;;;;5.05;1.90;;;16.20;99.90;;;;;;5071036;28;20043;-64
2022/09/14 08:00:30;;;;;;;6.35;1.55;;;16.30;99.90;;;;;;5097096;28;20051;-64
2022/09/14 08:02:57;;;;;;;5.53;1.58;;;16.40;99.90;;;;;;5044225;28;20485;-65
2022/09/14 08:05:24;;;;;;;9.00;1.75;;;16.50;99.90;;;;;;5069695;28;20441;-65
2022/09/14 08:07:55;;;;;;;6.05;1.50;;;16.60;99.90;;;;;;5090924;28;20048;-64
2022/09/14 08:10:22;;;;;;;5.70;1.20;;;16.60;99.90;;;;;;5074780;28;20481;-65
2022/09/14 08:12:52;;;;;;;5.53;1.40;;;16.70;99.90;;;;;;5074635;28;20086;-64
2022/09/14 08:15:19;;;;;;;8.10;1.40;;;16.70;99.90;;;;;;5076673;28;20043;-64
2022/09/14 08:17:45;;;;;;;10.18;1.52;;;16.80;99.90;;;;;;5094118;28;20046;-64
2022/09/14 08:20:10;;;;;;;4.43;1.30;;;16.90;99.90;;;;;;5093804;28;20032;-64
2022/09/14 08:22:36;;;;;;;5.70;1.02;;;17.00;99.90;;;;;;5089479;28;20083;-64
2022/09/14 08:25:02;;;;;;;8.82;1.35;;;17.10;99.90;;;;;;5066660;28;20083;-64
2022/09/14 08:27:27;;;;;;;7.30;1.40;;;17.10;99.90;;;;;;5087971;28;20067;-64
2022/09/14 08:29:53;;;;;;;8.52;1.95;;;17.20;99.90;;;;;;5072920;28;20094;-64
2022/09/14 08:32:18;;;;;;;5.30;1.30;;;17.20;99.90;;;;;;5073755;28;20054;-63
2022/09/14 08:34:44;;;;;;;5.50;1.40;;;17.30;99.90;;;;;;5070451;28;20040;-63
2022/09/14 08:37:11;;;;;;;4.68;1.20;;;17.30;99.90;;;;;;5079471;28;20044;-63
2022/09/14 08:39:37;;;;;;;6.28;1.20;;;17.40;99.90;;;;;;5073626;28;20056;-63
2022/09/14 08:42:04;;;;;;;7.03;1.58;;;17.40;99.90;;;;;;5076696;28;20036;-63
2022/09/14 08:44:46;;;;;;;5.55;1.42;;;17.50;99.90;;;;;;5074361;28;20053;-63
2022/09/14 08:47:33;;;;;;;6.22;1.35;;;17.50;99.90;;;;;;5073874;28;20036;-63
2022/09/14 08:50:19;;;;;;;8.10;1.67;;;17.60;99.90;;;;;;5089050;28;20040;-63
2022/09/14 08:52:45;;;;;;;7.97;1.88;;;17.70;99.90;;;;;;5074182;28;20044;-62
2022/09/14 08:55:23;;;;;;;6.03;1.20;;;17.70;99.90;;;;;;5075000;28;20068;-63
2022/09/14 08:58:00;;;;;;;5.65;1.38;;;17.70;99.90;;;;;;5056823;28;20094;-63
2022/09/14 09:00:37;;;;;;;6.85;1.30;;;17.80;99.90;;;;;;5090956;28;20040;-62
2022/09/14 09:03:41;;;;;;;5.10;1.30;;;17.80;99.90;;;;;;5075103;28;20051;-62
2022/09/14 09:06:15;;;;;;;8.10;1.20;;;17.80;99.90;;;;;;5068594;28;20036;-63
2022/09/14 09:09:03;;;;;;;5.63;1.33;;;17.90;99.90;;;;;;5054296;28;20527;-63
2022/09/14 09:11:39;;;;;;;5.63;1.50;;;18.10;99.90;;;;;;5064484;28;20384;-62
2022/09/14 09:14:17;;;;;;;8.80;1.38;;;18.10;99.90;;;;;;5067233;28;20484;-63
2022/09/14 09:16:45;;;;;;;8.93;1.33;;;18.20;99.90;;;;;;5071156;28;20062;-62
2022/09/14 09:19:27;;;;;;;5.50;1.20;;;18.10;99.90;;;;;;5091778;28;20036;-62
2022/09/14 09:21:53;;;;;;;10.43;1.98;;;18.10;99.90;;;;;;5081830;28;20060;-63
2022/09/14 09:24:37;;;;;;;5.82;1.27;;;18.00;99.90;;;;;;5075563;28;20048;-62
2022/09/14 09:27:13;;;;;;;4.65;1.25;;;18.00;99.90;;;;;;5064173;28;20058;-63
2022/09/14 09:29:39;;;;;;;4.93;1.50;;;18.00;99.90;;;;;;5055947;28;20131;-63
2022/09/14 09:32:09;;;;;;;9.20;1.95;;;18.00;99.90;;;;;;5073133;28;20127;-62
2022/09/14 09:34:35;;;;;;;7.63;2.28;;;17.90;99.90;;;;;;5075194;28;20174;-63
2022/09/14 09:37:01;;;;;;;6.78;2.08;;;17.90;99.90;;;;;;5050922;28;20711;-62
2022/09/14 09:39:30;;;;;;;10.70;1.70;;;17.90;99.90;;;;;;5075151;28;20070;-63
2022/09/14 09:42:23;;;;;;;9.27;2.25;;;17.90;99.90;;;;;;5092479;28;20075;-63
2022/09/14 09:44:53;;;;;;;5.47;1.58;;;17.90;99.90;;;;;;5063251;28;20048;-63
2022/09/14 09:47:38;;;;;;;5.43;1.40;;;17.90;99.90;;;;;;5088366;28;20428;-62
2022/09/14 09:50:25;;;;;;;7.78;2.13;;;17.90;99.90;;;;;;5092018;28;20101;-62
2022/09/14 09:52:54;;;;;;;5.07;1.40;;;17.90;99.90;;;;;;5092451;28;20085;-62
2022/09/14 09:55:30;;;;;;;6.63;1.70;;;17.90;99.90;;;;;;5095869;28;20036;-62
2022/09/14 09:57:56;;;;;;;6.57;1.70;;;17.90;99.90;;;;;;5063349;28;20041;-62
2022/09/14 10:00:28;;;;;;;8.52;2.33;;;17.90;99.90;;;;;;5070187;28;20062;-62
2022/09/14 10:02:54;;;;;;;6.00;1.45;;;17.90;99.90;;;;;;5075020;28;20044;-62
2022/09/14 10:05:27;;;;;;;7.15;2.08;;;17.90;99.90;;;;;;5078896;28;20055;-62
2022/09/14 10:08:06;;;;;;;7.38;2.13;;;17.90;99.90;;;;;;5086942;28;20083;-62
2022/09/14 10:10:34;;;;;;;4.65;1.30;;;18.00;99.90;;;;;;5070108;28;20090;-62
2022/09/14 10:13:03;;;;;;;5.60;1.52;;;18.00;99.90;;;;;;5082326;28;20126;-61
2022/09/14 10:15:30;;;;;;;5.30;1.23;;;18.10;99.90;;;;;;5076112;28;20048;-62
2022/09/14 10:18:09;;;;;;;6.18;1.90;;;18.10;99.90;;;;;;5067505;28;20066;-62
2022/09/14 10:20:41;;;;;;;7.65;1.73;;;18.10;99.90;;;;;;5090637;28;20712;-62
2022/09/14 10:23:18;;;;;;;5.95;1.20;;;18.10;99.90;;;;;;5078793;28;20048;-61
2022/09/14 10:26:08;;;;;;;8.05;1.77;;;18.20;99.90;;;;;;5064191;28;20044;-62
2022/09/14 10:28:34;;;;;;;6.10;1.50;;;18.10;99.90;;;;;;5090805;28;20039;-62
2022/09/14 10:31:18;;;;;;;4.72;1.23;;;18.10;99.90;;;;;;5069437;28;20529;-61
2022/09/14 10:33:52;;;;;;;7.38;1.30;;;18.10;99.90;;;;;;5052676;28;20041;-62
2022/09/14 10:36:28;;;;;;;8.13;1.35;;;18.10;99.90;;;;;;5054326;28;20078;-62
2022/09/14 10:39:01;;;;;;;6.32;1.40;;;18.10;99.90;;;;;;5071246;28;20456;-62
2022/09/14 10:41:33;;;;;;;6.23;2.03;;;18.10;99.90;;;;;;5101014;28;20089;-62
2022/09/14 10:44:27;;;;;;;6.10;1.23;;;18.10;99.90;;;;;;5082322;28;20056;-62
2022/09/14 10:47:02;;;;;;;8.32;1.42;;;18.20;99.90;;;;;;5064583;28;20111;-62
2022/09/14 10:49:43;;;;;;;7.43;1.75;;;18.20;99.90;;;;;;5057587;28;20052;-62
2022/09/14 10:52:32;;;;;;;7.82;1.38;;;18.20;99.90;;;;;;5071092;28;20080;-62
2022/09/14 10:55:07;;;;;;;4.18;1.15;;;18.30;99.90;;;;;;5071339;28;20488;-62
2022/09/14 10:57:47;;;;;;;7.53;1.48;;;18.30;99.90;;;;;;5073138;28;20089;-62
2022/09/14 11:00:18;;;;;;;7.55;1.92;;;18.40;99.90;;;;;;5092405;28;20048;-62
2022/09/14 11:02:54;;;;;;;7.70;1.65;;;18.50;99.90;;;;;;5072817;28;20116;-63
2022/09/14 11:05:32;;;;;;;5.00;1.33;;;18.50;99.90;;;;;;5071533;28;20040;-62
2022/09/14 11:08:07;;;;;;;5.38;1.20;;;18.60;99.90;;;;;;5064561;28;20079;-62
2022/09/14 11:10:59;;;;;;;4.63;1.60;;;18.70;99.90;;;;;;5068974;28;20438;-62
2022/09/14 11:13:37;;;;;;;7.25;1.40;;;18.80;99.90;;;;;;5072162;28;20047;-62
2022/09/14 11:16:39;;;;;;;4.60;1.38;;;18.90;99.90;;;;;;5070681;28;20497;-62
2022/09/14 11:19:30;;;;;;;6.72;1.67;;;18.80;99.90;;;;;;5053441;28;20538;-63
2022/09/14 11:22:05;;;;;;;3.53;1.20;;;18.80;99.90;;;;;;5052252;28;20082;-62
2022/09/14 11:24:37;;;;;;;;;;;18.70;99.90;;;;;;5054798;28;20515;-63
2022/09/14 11:27:20;;;;;;;4.65;1.38;;;18.60;99.90;;;;;;5071198;28;19923;-62
2022/09/14 11:29:50;;;;;;;4.50;1.50;;;18.70;99.90;;;;;;5070386;28;20070;-62
2022/09/14 11:32:29;;;;;;;7.20;1.77;;;18.70;99.90;;;;;;5073434;28;20044;-62
2022/09/14 11:35:20;;;;;;;7.05;1.60;;;18.90;99.90;;;;;;5074838;28;20468;-63
2022/09/14 11:37:59;;;;;;;6.97;1.65;;;19.00;99.90;;;;;;5057174;28;20041;-62
2022/09/14 11:40:40;;;;;;;6.38;1.70;;;19.00;99.90;;;;;;5075551;28;20033;-62
2022/09/14 11:43:15;;;;;;;8.48;1.25;;;19.10;99.90;;;;;;5074114;28;20055;-62
2022/09/14 11:45:47;;;;;;;6.32;1.35;;;19.20;99.90;;;;;;5075941;28;20037;-62
2022/09/14 11:48:19;;;;;;;8.80;1.70;;;19.20;99.90;;;;;;5075320;28;20044;-62
2022/09/14 11:50:50;;;;;;;6.32;1.55;;;19.30;99.90;;;;;;5056110;28;20090;-62
2022/09/14 11:53:16;;;;;;;6.03;1.75;;;19.30;99.90;;;;;;5075246;28;20029;-62
2022/09/14 11:55:47;;;;;;;6.88;1.52;;;19.30;99.90;;;;;;5057276;28;20443;-62
2022/09/14 11:58:27;;;;;;;5.82;1.30;;;19.30;99.90;;;;;;5056655;28;20044;-62
2022/09/14 12:01:00;;;;;;;5.50;1.33;;;19.30;99.90;;;;;;5074654;28;20048;-62
2022/09/14 12:03:50;;;;;;;4.75;1.13;;;19.30;99.90;;;;;;5074168;28;20497;-62
2022/09/14 12:06:31;;;;;;;7.47;1.73;;;19.40;99.90;;;;;;5057190;28;20507;-62
2022/09/14 12:09:22;;;;;;;4.68;1.00;;;19.40;99.90;;;;;;5056411;28;20049;-62
2022/09/14 12:11:50;;;;;;;5.07;1.55;;;19.50;99.90;;;;;;5073471;28;20101;-62
2022/09/14 12:14:39;;;;;;;4.75;1.13;;;19.50;99.90;;;;;;5075071;28;20033;-63
2022/09/14 12:17:12;;;;;;;3.75;1.17;;;19.40;99.90;;;;;;5056131;28;20119;-63
2022/09/14 12:19:38;;;;;;;4.40;1.30;;;19.40;99.90;;;;;;5074192;28;20036;-63
2022/09/14 12:22:36;;;;;;;5.88;1.70;;;19.30;99.90;;;;;;5073978;28;20057;-63
2022/09/14 12:25:08;;;;;;;7.78;1.75;;;19.40;99.90;;;;;;5072919;28;20062;-63
2022/09/14 12:27:39;;;;;;;7.82;1.70;;;19.40;99.90;;;;;;5074409;28;20036;-63
2022/09/14 12:30:34;;;;;;;5.60;1.40;;;19.30;99.90;;;;;;5074126;28;20049;-62
2022/09/14 12:32:59;;;;;;;9.27;1.85;;;19.20;99.90;;;;;;5030553;28;20052;-62
2022/09/14 12:35:42;;;;;;;7.03;1.77;;;19.00;99.90;;;;;;5056753;28;20049;-62
2022/09/14 12:38:29;;;;;;;6.05;1.92;;;18.90;99.90;;;;;;5073833;28;20489;-63
2022/09/14 12:41:07;;;;;;;7.53;1.48;;;18.80;99.90;;;;;;5055775;28;20054;-63
2022/09/14 12:43:35;;;;;;;6.18;1.90;;;18.70;99.90;;;;;;5055573;28;20048;-62
2022/09/14 12:46:01;;;;;;;3.95;1.40;;;18.70;99.90;;;;;;5072835;28;20047;-62
2022/09/14 12:48:48;;;;;;;8.23;2.00;;;18.70;99.90;;;;;;5074081;28;20501;-62
2022/09/14 12:51:25;;;;;;;4.30;1.25;;;18.80;99.90;;;;;;5074233;28;20389;-62
2022/09/14 12:54:00;;;;;;;8.18;1.60;;;18.80;99.90;;;;;;5072663;28;20079;-63
2022/09/14 12:56:44;;;;;;;;;;;18.90;99.90;;;;;;5074496;28;20116;-63
2022/09/14 12:59:23;;;;;;;6.88;1.63;;;18.80;99.90;;;;;;5074022;28;19916;-62
2022/09/14 13:02:16;;;;;;;5.43;1.55;;;18.80;99.90;;;;;;5054849;28;20049;-62
2022/09/14 13:04:44;;;;;;;4.32;1.38;;;18.90;99.90;;;;;;5056540;28;20052;-62
2022/09/14 13:07:18;;;;;;;5.78;1.30;;;19.00;99.90;;;;;;5072826;28;20042;-62
2022/09/14 13:10:05;;;;;;;7.55;2.03;;;19.20;99.90;;;;;;5073964;28;20048;-62
2022/09/14 13:12:39;;;;;;;6.75;2.03;;;19.20;99.90;;;;;;5055926;28;20120;-62